createdAt,value
2022-07-26T00:00:34.149Z,41.99
2022-07-26T00:01:35.722Z,41.96
2022-07-26T00:02:38.070Z,42.31
2022-07-26T00:03:39.615Z,42.55
2022-07-26T00:04:41.121Z,42.25
2022-07-26T00:05:43.461Z,42.75
2022-07-26T00:06:44.999Z,42.34
2022-07-26T00:07:46.754Z,42.58
2022-07-26T00:08:48.329Z,42.83
2022-07-26T00:09:49.842Z,42.89
2022-07-26T00:10:51.396Z,42.35
2022-07-26T00:11:52.884Z,42.35
2022-07-26T00:12:54.382Z,42.77
2022-07-26T00:13:55.978Z,42.47
2022-07-26T00:14:57.630Z,42.25
2022-07-26T00:15:59.265Z,42.26
2022-07-26T00:17:00.950Z,42.22
2022-07-26T00:18:02.473Z,42.31
2022-07-26T00:19:04.863Z,42.11
2022-07-26T00:20:06.929Z,42.16
2022-07-26T00:21:08.515Z,42.58
2022-07-26T00:22:28.827Z,42.41
2022-07-26T00:23:30.383Z,42.25
2022-07-26T00:24:35.359Z,42.79
2022-07-26T00:25:37.236Z,42.51
2022-07-26T00:26:38.734Z,42.77
2022-07-26T00:27:40.314Z,42.39
2022-07-26T00:28:41.843Z,42.58
2022-07-26T00:29:43.341Z,42.45
2022-07-26T00:30:44.899Z,43.28
2022-07-26T00:31:46.431Z,42.88
2022-07-26T00:32:47.974Z,42.83
2022-07-26T00:33:49.583Z,42.91
2022-07-26T00:34:51.646Z,43.10
2022-07-26T00:35:53.749Z,42.75
2022-07-26T00:36:55.476Z,42.90
2022-07-26T00:37:57.019Z,42.79
2022-07-26T00:38:58.509Z,43.08
2022-07-26T00:40:00.076Z,43.46
2022-07-26T00:41:01.667Z,43.56
2022-07-26T00:42:03.163Z,43.65
2022-07-26T00:43:04.692Z,42.95
2022-07-26T00:44:06.232Z,43.24
2022-07-26T00:45:08.084Z,43.20
2022-07-26T00:46:09.780Z,43.24
2022-07-26T00:47:11.423Z,43.26
2022-07-26T00:48:12.916Z,43.03
2022-07-26T00:49:14.977Z,43.15
2022-07-26T00:50:17.190Z,43.02
2022-07-26T00:51:18.899Z,43.54
2022-07-26T00:52:20.438Z,43.31
2022-07-26T00:53:22.227Z,43.50
2022-07-26T00:54:23.771Z,43.94
2022-07-26T00:55:25.292Z,43.63
2022-07-26T00:56:26.821Z,43.51
2022-07-26T00:57:28.429Z,43.19
2022-07-26T00:58:30.025Z,43.35
2022-07-26T00:59:31.604Z,43.53
2022-07-26T01:00:33.209Z,43.64
2022-07-26T01:01:34.823Z,43.64
2022-07-26T01:02:36.642Z,43.57
2022-07-26T01:03:39.660Z,43.57
2022-07-26T01:04:42.556Z,43.93
2022-07-26T01:05:44.074Z,43.96
2022-07-26T01:06:45.632Z,43.80
2022-07-26T01:07:47.253Z,43.96
2022-07-26T01:08:48.844Z,44.05
2022-07-26T01:09:50.345Z,44.23
2022-07-26T01:10:51.876Z,44.02
2022-07-26T01:11:53.435Z,44.20
2022-07-26T01:12:54.971Z,44.13
2022-07-26T01:13:56.457Z,44.26
2022-07-26T01:14:58.002Z,44.35
2022-07-26T01:15:59.585Z,44.35
2022-07-26T01:17:01.180Z,44.48
2022-07-26T01:18:02.840Z,44.36
2022-07-26T01:19:04.322Z,44.65
2022-07-26T01:20:06.483Z,44.54
2022-07-26T01:21:09.090Z,44.72
2022-07-26T01:22:15.093Z,44.91
2022-07-26T01:23:16.941Z,45.17
2022-07-26T01:24:18.503Z,44.87
2022-07-26T01:25:29.434Z,44.76
2022-07-26T01:26:30.915Z,44.91
2022-07-26T01:27:34.417Z,44.95
2022-07-26T01:28:37.068Z,45.18
2022-07-26T01:29:38.634Z,45.01
2022-07-26T01:30:40.116Z,44.89
2022-07-26T01:31:41.761Z,45.07
2022-07-26T01:32:43.259Z,45.29
2022-07-26T01:33:44.782Z,45.31
2022-07-26T01:34:46.534Z,45.24
2022-07-26T01:35:48.040Z,45.26
2022-07-26T01:36:50.675Z,45.27
2022-07-26T01:37:52.428Z,45.46
2022-07-26T01:38:53.919Z,45.38
2022-07-26T01:39:55.469Z,45.43
2022-07-26T01:40:56.997Z,45.50
2022-07-26T01:41:59.214Z,45.58
2022-07-26T01:43:00.743Z,45.74
2022-07-26T01:44:02.263Z,45.92
2022-07-26T01:45:04.147Z,45.88
2022-07-26T01:46:07.456Z,45.91
2022-07-26T01:47:09.673Z,46.10
2022-07-26T01:48:11.762Z,46.09
2022-07-26T01:49:23.472Z,46.56
2022-07-26T01:50:26.236Z,46.82
2022-07-26T01:51:27.931Z,46.04
2022-07-26T01:52:29.478Z,46.08
2022-07-26T01:53:30.959Z,46.00
2022-07-26T01:54:32.485Z,45.85
2022-07-26T01:55:34.264Z,45.91
2022-07-26T01:56:35.792Z,45.96
2022-07-26T01:57:37.283Z,45.84
2022-07-26T01:58:38.829Z,45.82
2022-07-26T01:59:40.310Z,45.97
2022-07-26T02:00:41.792Z,45.98
2022-07-26T02:01:43.385Z,45.85
2022-07-26T02:02:45.001Z,46.02
2022-07-26T02:03:48.409Z,45.99
2022-07-26T02:04:58.867Z,46.14
2022-07-26T02:06:00.423Z,46.08
2022-07-26T02:07:03.298Z,46.07
2022-07-26T02:08:07.204Z,46.21
2022-07-26T02:09:12.633Z,46.68
2022-07-26T02:10:14.822Z,46.49
2022-07-26T02:11:16.323Z,46.23
2022-07-26T02:12:17.843Z,46.22
2022-07-26T02:13:19.391Z,46.34
2022-07-26T02:14:25.776Z,46.20
2022-07-26T02:15:29.838Z,46.26
2022-07-26T02:16:31.445Z,46.20
2022-07-26T02:17:33.075Z,46.08
2022-07-26T02:18:34.667Z,46.03
2022-07-26T02:19:36.194Z,45.96
2022-07-26T02:20:37.728Z,46.21
2022-07-26T02:21:39.223Z,45.92
2022-07-26T02:22:40.790Z,46.07
2022-07-26T02:23:42.313Z,46.06
2022-07-26T02:24:43.888Z,46.08
2022-07-26T02:25:45.399Z,46.08
2022-07-26T02:26:46.893Z,46.16
2022-07-26T02:27:48.394Z,45.94
2022-07-26T02:28:49.953Z,46.08
2022-07-26T02:29:51.435Z,46.11
2022-07-26T02:30:53.019Z,45.97
2022-07-26T02:31:55.098Z,46.25
2022-07-26T02:32:56.771Z,46.12
2022-07-26T02:33:58.305Z,46.16
2022-07-26T02:34:59.873Z,46.22
2022-07-26T02:36:01.359Z,46.21
2022-07-26T02:37:02.889Z,46.17
2022-07-26T02:38:05.080Z,46.17
2022-07-26T02:39:06.638Z,46.27
2022-07-26T02:40:08.394Z,46.39
2022-07-26T02:41:09.942Z,46.15
2022-07-26T02:42:11.685Z,46.28
2022-07-26T02:43:13.231Z,46.46
2022-07-26T02:44:14.794Z,46.47
2022-07-26T02:45:16.274Z,46.57
2022-07-26T02:46:17.774Z,46.38
2022-07-26T02:47:19.575Z,46.62
2022-07-26T02:48:21.093Z,46.58
2022-07-26T02:49:24.414Z,46.70
2022-07-26T02:50:26.209Z,46.67
2022-07-26T02:51:27.702Z,46.75
2022-07-26T02:52:29.203Z,46.63
2022-07-26T02:53:30.739Z,46.77
2022-07-26T02:54:32.226Z,46.93
2022-07-26T02:55:33.714Z,46.68
2022-07-26T02:56:35.276Z,46.87
2022-07-26T02:57:46.476Z,46.82
2022-07-26T02:58:48.493Z,46.85
2022-07-26T02:59:50.095Z,46.75
2022-07-26T03:00:51.615Z,46.74
2022-07-26T03:01:53.300Z,46.65
2022-07-26T03:02:54.985Z,46.70
2022-07-26T03:03:56.839Z,46.92
2022-07-26T03:04:58.383Z,46.75
2022-07-26T03:05:59.860Z,46.85
2022-07-26T03:07:01.449Z,46.84
2022-07-26T03:08:03.991Z,46.97
2022-07-26T03:09:05.590Z,47.01
2022-07-26T03:10:07.498Z,47.16
2022-07-26T03:11:11.967Z,47.31
2022-07-26T03:12:13.812Z,47.32
2022-07-26T03:13:15.376Z,47.46
2022-07-26T03:14:16.940Z,47.25
2022-07-26T03:15:18.425Z,47.45
2022-07-26T03:16:22.723Z,47.50
2022-07-26T03:17:26.333Z,47.67
2022-07-26T03:18:27.834Z,48.01
2022-07-26T03:19:29.352Z,47.90
2022-07-26T03:20:30.862Z,48.04
2022-07-26T03:21:32.426Z,48.01
2022-07-26T03:22:34.017Z,48.13
2022-07-26T03:23:35.538Z,48.07
2022-07-26T03:24:37.190Z,48.00
2022-07-26T03:25:38.709Z,48.22
2022-07-26T03:26:40.232Z,48.33
2022-07-26T03:27:42.004Z,48.53
2022-07-26T03:28:44.616Z,48.38
2022-07-26T03:29:46.267Z,48.33
2022-07-26T03:30:47.917Z,48.48
2022-07-26T03:31:49.482Z,48.38
2022-07-26T03:32:51.057Z,48.30
2022-07-26T03:33:52.550Z,48.45
2022-07-26T03:34:54.230Z,48.56
2022-07-26T03:35:55.713Z,48.39
2022-07-26T03:36:57.311Z,48.43
2022-07-26T03:37:58.861Z,48.47
2022-07-26T03:39:00.498Z,48.63
2022-07-26T03:40:02.066Z,48.66
2022-07-26T03:41:03.584Z,48.63
2022-07-26T03:42:05.197Z,48.86
2022-07-26T03:43:06.679Z,48.74
2022-07-26T03:44:08.446Z,49.00
2022-07-26T03:45:10.577Z,48.66
2022-07-26T03:46:12.152Z,48.74
2022-07-26T03:47:13.758Z,48.89
2022-07-26T03:48:15.350Z,48.46
2022-07-26T03:49:17.408Z,48.69
2022-07-26T03:50:19.131Z,48.85
2022-07-26T03:51:20.643Z,48.77
2022-07-26T03:52:22.103Z,49.27
2022-07-26T03:53:23.735Z,48.81
2022-07-26T03:54:25.291Z,49.17
2022-07-26T03:55:45.611Z,49.29
2022-07-26T03:56:47.237Z,48.69
2022-07-26T03:57:49.240Z,48.70
2022-07-26T03:58:50.751Z,48.51
2022-07-26T03:59:52.295Z,48.84
2022-07-26T04:00:53.783Z,48.84
2022-07-26T04:01:55.425Z,48.63
2022-07-26T04:02:57.185Z,48.85
2022-07-26T04:03:58.756Z,48.74
2022-07-26T04:05:00.674Z,48.72
2022-07-26T04:06:02.516Z,48.66
2022-07-26T04:07:04.986Z,48.65
2022-07-26T04:08:07.048Z,48.66
2022-07-26T04:09:08.714Z,48.55
2022-07-26T04:10:10.569Z,48.65
2022-07-26T04:11:12.110Z,49.00
2022-07-26T04:12:13.592Z,48.73
2022-07-26T04:13:15.069Z,48.45
2022-07-26T04:14:16.666Z,48.75
2022-07-26T04:15:19.191Z,49.21
2022-07-26T04:16:20.845Z,49.12
2022-07-26T04:17:22.471Z,48.76
2022-07-26T04:18:24.726Z,48.59
2022-07-26T04:19:26.438Z,48.54
2022-07-26T04:20:27.948Z,48.59
2022-07-26T04:21:29.521Z,48.35
2022-07-26T04:22:31.785Z,48.66
2022-07-26T04:23:33.386Z,48.42
2022-07-26T04:24:34.892Z,48.39
2022-07-26T04:25:41.086Z,48.59
2022-07-26T04:26:43.199Z,48.42
2022-07-26T04:27:44.820Z,48.61
2022-07-26T04:28:46.291Z,48.50
2022-07-26T04:29:47.799Z,48.72
2022-07-26T04:30:49.585Z,48.65
2022-07-26T04:31:51.799Z,48.71
2022-07-26T04:32:53.274Z,48.73
2022-07-26T04:33:54.772Z,48.58
2022-07-26T04:34:56.250Z,48.61
2022-07-26T04:35:57.766Z,48.52
2022-07-26T04:36:59.279Z,48.64
2022-07-26T04:38:02.327Z,48.57
2022-07-26T04:39:03.811Z,48.69
2022-07-26T04:40:05.621Z,48.44
2022-07-26T04:41:07.131Z,48.60
2022-07-26T04:42:08.689Z,48.48
2022-07-26T04:43:15.775Z,48.81
2022-07-26T04:44:17.580Z,48.46
2022-07-26T04:45:19.340Z,48.70
2022-07-26T04:46:20.925Z,48.90
2022-07-26T04:47:22.443Z,48.78
2022-07-26T04:48:24.157Z,48.57
2022-07-26T04:49:25.737Z,48.65
2022-07-26T04:50:30.264Z,48.68
2022-07-26T04:51:31.869Z,48.62
2022-07-26T04:52:33.926Z,48.77
2022-07-26T04:53:35.611Z,48.78
2022-07-26T04:54:37.132Z,48.76
2022-07-26T04:55:38.843Z,48.78
2022-07-26T04:56:40.344Z,48.67
2022-07-26T04:57:42.008Z,48.72
2022-07-26T04:58:43.541Z,48.72
2022-07-26T04:59:53.743Z,48.74
2022-07-26T05:01:10.094Z,48.83
2022-07-26T05:02:15.186Z,48.91
2022-07-26T05:03:16.862Z,49.00
2022-07-26T05:04:18.387Z,48.72
2022-07-26T05:05:20.634Z,49.08
2022-07-26T05:06:22.162Z,49.03
2022-07-26T05:07:25.624Z,49.11
2022-07-26T05:08:27.107Z,49.06
2022-07-26T05:09:31.602Z,49.17
2022-07-26T05:10:35.178Z,49.16
2022-07-26T05:11:36.723Z,49.41
2022-07-26T05:12:38.230Z,49.29
2022-07-26T05:13:39.894Z,49.47
2022-07-26T05:14:41.779Z,49.41
2022-07-26T05:15:43.649Z,49.43
2022-07-26T05:16:47.165Z,49.15
2022-07-26T05:17:48.820Z,49.42
2022-07-26T05:18:50.316Z,49.41
2022-07-26T05:19:54.416Z,49.26
2022-07-26T05:20:56.142Z,49.22
2022-07-26T05:21:57.646Z,49.17
2022-07-26T05:22:59.327Z,49.09
2022-07-26T05:24:00.915Z,49.27
2022-07-26T05:25:02.556Z,49.41
2022-07-26T05:26:04.082Z,49.41
2022-07-26T05:27:05.568Z,49.21
2022-07-26T05:28:07.115Z,49.25
2022-07-26T05:29:08.616Z,49.30
2022-07-26T05:30:10.764Z,49.62
2022-07-26T05:31:12.370Z,49.45
2022-07-26T05:32:13.892Z,49.22
2022-07-26T05:33:16.589Z,49.10
2022-07-26T05:34:18.346Z,49.27
2022-07-26T05:35:20.053Z,49.35
2022-07-26T05:36:21.905Z,49.06
2022-07-26T05:37:23.407Z,49.01
2022-07-26T05:38:25.794Z,49.11
2022-07-26T05:39:27.336Z,49.07
2022-07-26T05:40:28.901Z,49.16
2022-07-26T05:41:30.411Z,48.85
2022-07-26T05:42:31.922Z,48.41
2022-07-26T05:43:41.626Z,48.40
2022-07-26T05:44:43.574Z,48.55
2022-07-26T05:45:46.140Z,48.51
2022-07-26T05:46:47.696Z,48.83
2022-07-26T05:47:49.986Z,48.53
2022-07-26T05:48:51.545Z,48.61
2022-07-26T05:49:53.114Z,48.56
2022-07-26T05:50:54.711Z,48.24
2022-07-26T05:52:01.057Z,47.96
2022-07-26T05:53:02.859Z,48.19
2022-07-26T05:54:04.776Z,48.14
2022-07-26T05:55:07.176Z,47.99
2022-07-26T05:56:08.836Z,47.82
2022-07-26T05:57:10.316Z,47.96
2022-07-26T05:58:11.793Z,48.04
2022-07-26T05:59:13.330Z,47.85
2022-07-26T06:00:14.866Z,47.95
2022-07-26T06:01:16.362Z,47.80
2022-07-26T06:02:21.096Z,48.06
2022-07-26T06:03:32.382Z,47.96
2022-07-26T06:04:34.055Z,48.02
2022-07-26T06:05:35.606Z,47.87
2022-07-26T06:06:37.172Z,47.90
2022-07-26T06:07:38.655Z,47.60
2022-07-26T06:08:40.278Z,47.40
2022-07-26T06:09:41.842Z,47.69
2022-07-26T06:10:43.416Z,47.20
2022-07-26T06:11:44.966Z,47.52
2022-07-26T06:12:46.454Z,47.33
2022-07-26T06:13:51.429Z,47.22
2022-07-26T06:14:55.241Z,47.12
2022-07-26T06:15:56.792Z,47.29
2022-07-26T06:16:58.323Z,47.15
2022-07-26T06:17:59.815Z,47.33
2022-07-26T06:19:01.576Z,47.10
2022-07-26T06:20:03.122Z,47.03
2022-07-26T06:21:04.665Z,47.21
2022-07-26T06:22:06.177Z,47.18
2022-07-26T06:23:07.716Z,47.26
2022-07-26T06:24:09.630Z,47.37
2022-07-26T06:25:11.489Z,47.25
2022-07-26T06:26:13.048Z,47.06
2022-07-26T06:27:14.531Z,46.99
2022-07-26T06:28:16.590Z,46.86
2022-07-26T06:29:18.109Z,47.07
2022-07-26T06:30:19.602Z,47.26
2022-07-26T06:31:21.167Z,47.42
2022-07-26T06:32:22.776Z,47.19
2022-07-26T06:33:24.273Z,47.34
2022-07-26T06:34:25.770Z,47.67
2022-07-26T06:35:30.929Z,47.13
2022-07-26T06:36:32.480Z,47.03
2022-07-26T06:37:35.812Z,46.97
2022-07-26T06:38:38.948Z,46.98
2022-07-26T06:39:40.432Z,46.92
2022-07-26T06:40:41.955Z,46.91
2022-07-26T06:41:43.463Z,46.94
2022-07-26T06:42:45.003Z,47.22
2022-07-26T06:43:46.859Z,47.18
2022-07-26T06:44:48.338Z,47.48
2022-07-26T06:45:50.036Z,47.40
2022-07-26T06:46:51.633Z,47.44
2022-07-26T06:47:53.203Z,47.50
2022-07-26T06:48:57.035Z,47.42
2022-07-26T06:49:58.757Z,47.37
2022-07-26T06:51:00.337Z,47.23
2022-07-26T06:52:01.834Z,47.34
2022-07-26T06:53:03.619Z,47.21
2022-07-26T06:54:05.692Z,47.32
2022-07-26T06:55:09.055Z,47.57
2022-07-26T06:56:15.051Z,47.75
2022-07-26T06:57:16.624Z,47.54
2022-07-26T06:58:18.594Z,47.46
2022-07-26T06:59:20.243Z,47.30
2022-07-26T07:00:21.887Z,46.92
2022-07-26T07:01:59.709Z,46.90
2022-07-26T07:02:45.037Z,46.72
2022-07-26T07:03:47.853Z,46.62
2022-07-26T07:04:49.604Z,46.90
2022-07-26T07:05:51.205Z,46.82
2022-07-26T07:06:52.752Z,47.10
2022-07-26T07:07:54.317Z,47.20
2022-07-26T07:08:55.810Z,47.01
2022-07-26T07:09:58.079Z,46.31
2022-07-26T07:11:00.150Z,46.46
2022-07-26T07:12:09.720Z,46.41
2022-07-26T07:13:12.391Z,46.51
2022-07-26T07:14:13.984Z,46.58
2022-07-26T07:15:15.823Z,46.68
2022-07-26T07:16:17.455Z,46.91
2022-07-26T07:17:20.358Z,47.02
2022-07-26T07:18:22.202Z,47.03
2022-07-26T07:19:23.856Z,46.92
2022-07-26T07:20:25.856Z,46.99
2022-07-26T07:21:27.606Z,46.66
2022-07-26T07:22:29.116Z,46.53
2022-07-26T07:23:30.842Z,46.54
2022-07-26T07:24:32.333Z,46.67
2022-07-26T07:25:34.381Z,46.82
2022-07-26T07:26:36.907Z,47.04
2022-07-26T07:27:38.476Z,46.34
2022-07-26T07:28:40.163Z,46.19
2022-07-26T07:29:42.142Z,45.78
2022-07-26T07:30:44.912Z,45.83
2022-07-26T07:31:48.829Z,46.27
2022-07-26T07:32:51.142Z,46.23
2022-07-26T07:33:53.755Z,46.13
2022-07-26T07:34:55.569Z,46.19
2022-07-26T07:35:57.111Z,46.21
2022-07-26T07:36:58.760Z,45.65
2022-07-26T07:38:02.527Z,45.64
2022-07-26T07:39:06.667Z,45.87
2022-07-26T07:40:09.908Z,45.79
2022-07-26T07:41:11.523Z,46.01
2022-07-26T07:42:13.018Z,46.35
2022-07-26T07:43:14.609Z,46.59
2022-07-26T07:44:16.153Z,46.28
2022-07-26T07:45:17.696Z,46.31
2022-07-26T07:46:19.266Z,46.50
2022-07-26T07:47:22.172Z,46.08
2022-07-26T07:48:23.826Z,46.12
2022-07-26T07:49:25.430Z,46.13
2022-07-26T07:50:28.297Z,45.86
2022-07-26T07:51:29.956Z,45.74
2022-07-26T07:52:31.714Z,45.29
2022-07-26T07:53:33.254Z,45.22
2022-07-26T07:54:34.893Z,45.51
2022-07-26T07:55:41.482Z,45.20
2022-07-26T07:56:45.762Z,44.94
2022-07-26T07:57:47.502Z,44.78
2022-07-26T07:58:48.991Z,45.03
2022-07-26T07:59:53.822Z,44.65
2022-07-26T08:00:55.436Z,44.75
2022-07-26T08:01:56.987Z,44.95
2022-07-26T08:02:58.532Z,45.35
2022-07-26T08:04:00.093Z,44.51
2022-07-26T08:05:14.041Z,44.38
2022-07-26T08:06:16.278Z,44.49
2022-07-26T08:07:17.763Z,44.75
2022-07-26T08:08:22.604Z,45.02
2022-07-26T08:09:24.865Z,45.06
2022-07-26T08:10:30.389Z,44.72
2022-07-26T08:11:31.898Z,44.05
2022-07-26T08:12:35.526Z,44.33
2022-07-26T08:13:37.228Z,44.33
2022-07-26T08:14:39.099Z,43.82
2022-07-26T08:15:42.900Z,43.98
2022-07-26T08:16:44.768Z,43.90
2022-07-26T08:17:51.109Z,43.89
2022-07-26T08:18:57.285Z,44.20
2022-07-26T08:20:00.097Z,43.84
2022-07-26T08:21:03.410Z,43.82
2022-07-26T08:22:08.197Z,44.08
2022-07-26T08:23:09.670Z,44.28
2022-07-26T08:24:11.887Z,44.22
2022-07-26T08:25:13.427Z,44.08
2022-07-26T08:26:14.972Z,43.89
2022-07-26T08:27:16.746Z,43.22
2022-07-26T08:28:37.821Z,43.26
2022-07-26T08:29:39.771Z,43.46
2022-07-26T08:30:41.336Z,43.34
2022-07-26T08:31:42.876Z,43.59
2022-07-26T08:32:44.401Z,43.71
2022-07-26T08:33:46.987Z,43.26
2022-07-26T08:34:48.849Z,42.92
2022-07-26T08:35:50.403Z,43.28
2022-07-26T08:37:15.406Z,43.47
2022-07-26T08:38:14.038Z,43.78
2022-07-26T08:39:16.208Z,43.46
2022-07-26T08:40:17.806Z,42.30
2022-07-26T08:41:19.409Z,42.38
2022-07-26T08:42:23.035Z,42.32
2022-07-26T08:43:24.935Z,42.27
2022-07-26T08:44:26.437Z,42.26
2022-07-26T08:45:28.607Z,42.34
2022-07-26T08:46:30.195Z,42.80
2022-07-26T08:47:39.923Z,43.50
2022-07-26T08:48:47.855Z,42.24
2022-07-26T08:49:49.387Z,42.61
2022-07-26T08:50:50.942Z,42.11
2022-07-26T08:51:52.464Z,40.65
2022-07-26T08:52:55.453Z,40.59
2022-07-26T08:54:04.266Z,41.07
2022-07-26T08:55:06.889Z,41.40
2022-07-26T08:56:08.469Z,41.27
2022-07-26T08:57:09.997Z,40.98
2022-07-26T08:58:11.540Z,41.15
2022-07-26T08:59:20.955Z,41.65
2022-07-26T09:00:24.936Z,41.76
2022-07-26T09:01:27.123Z,41.47
2022-07-26T09:02:37.052Z,40.92
2022-07-26T09:03:38.953Z,40.79
2022-07-26T09:04:44.374Z,40.53
2022-07-26T09:05:46.086Z,40.27
2022-07-26T09:06:59.823Z,40.56
2022-07-26T09:08:01.789Z,40.38
2022-07-26T09:09:12.774Z,40.44
2022-07-26T09:10:14.577Z,40.10
2022-07-26T09:11:24.817Z,39.84
2022-07-26T09:12:26.989Z,40.02
2022-07-26T09:13:48.428Z,39.99
2022-07-26T09:14:50.151Z,39.90
2022-07-26T09:16:09.939Z,39.80
2022-07-26T09:17:11.485Z,40.46
2022-07-26T09:18:28.369Z,40.32
2022-07-26T09:19:29.901Z,40.56
2022-07-26T09:20:32.083Z,40.29
2022-07-26T09:21:36.297Z,39.50
2022-07-26T09:22:38.318Z,39.24
2022-07-26T09:23:40.117Z,39.36
2022-07-26T09:24:41.655Z,39.24
2022-07-26T09:25:43.677Z,38.54
2022-07-26T09:26:54.720Z,38.27
2022-07-26T09:27:56.326Z,38.18
2022-07-26T09:29:10.580Z,37.83
2022-07-26T09:30:12.817Z,38.55
2022-07-26T09:31:14.330Z,39.06
2022-07-26T09:32:18.678Z,39.50
2022-07-26T09:33:20.206Z,39.31
2022-07-26T09:34:25.294Z,39.51
2022-07-26T09:36:51.641Z,39.19
2022-07-26T09:37:53.154Z,39.49
2022-07-26T09:38:55.458Z,38.89
2022-07-26T09:39:58.007Z,39.26
2022-07-26T09:40:59.498Z,38.59
2022-07-26T09:42:26.714Z,38.26
2022-07-26T09:43:36.384Z,38.10
2022-07-26T09:44:40.957Z,37.70
2022-07-26T09:45:49.812Z,37.84
2022-07-26T09:46:57.677Z,38.16
2022-07-26T09:47:59.273Z,37.83
2022-07-26T09:49:16.824Z,38.37
2022-07-26T09:50:19.536Z,38.17
2022-07-26T09:51:40.792Z,38.06
2022-07-26T09:53:01.041Z,38.26
2022-07-26T09:54:02.565Z,38.60
2022-07-26T09:55:04.717Z,37.37
2022-07-26T09:56:06.474Z,37.04
2022-07-26T09:57:08.020Z,36.94
2022-07-26T09:58:10.186Z,37.43
2022-07-26T09:59:12.698Z,37.29
2022-07-26T10:00:14.583Z,37.00
2022-07-26T10:01:16.178Z,36.53
2022-07-26T10:02:19.680Z,36.13
2022-07-26T10:03:21.187Z,36.70
2022-07-26T10:04:22.830Z,36.69
2022-07-26T10:05:24.331Z,37.01
2022-07-26T10:06:30.276Z,37.06
2022-07-26T10:07:32.088Z,36.41
2022-07-26T10:08:33.630Z,36.28
2022-07-26T10:09:42.921Z,36.21
2022-07-26T10:10:44.502Z,36.68
2022-07-26T10:11:47.883Z,37.12
2022-07-26T10:12:58.496Z,37.16
2022-07-26T10:13:59.983Z,36.95
2022-07-26T10:15:01.586Z,37.23
2022-07-26T10:16:03.265Z,36.36
2022-07-26T10:17:26.832Z,35.83
2022-07-26T10:18:35.788Z,36.50
2022-07-26T10:19:41.603Z,35.47
2022-07-26T10:20:48.328Z,35.28
2022-07-26T10:21:56.845Z,35.18
2022-07-26T10:22:58.397Z,35.59
2022-07-26T10:24:00.315Z,35.71
2022-07-26T10:25:17.197Z,35.51
2022-07-26T10:26:31.016Z,35.50
2022-07-26T10:27:42.088Z,35.02
2022-07-26T10:28:43.657Z,35.74
2022-07-26T10:29:45.166Z,35.54
2022-07-26T10:30:46.736Z,35.09
2022-07-26T10:32:00.496Z,34.96
2022-07-26T10:33:08.963Z,35.35
2022-07-26T10:34:10.959Z,35.09
2022-07-26T10:35:54.262Z,34.03
2022-07-26T10:36:59.399Z,34.56
2022-07-26T10:38:01.969Z,34.58
2022-07-26T10:39:03.483Z,34.53
2022-07-26T10:40:15.637Z,34.38
2022-07-26T10:41:17.195Z,33.83
2022-07-26T10:42:19.048Z,34.01
2022-07-26T10:43:40.194Z,33.64
2022-07-26T10:44:42.490Z,32.99
2022-07-26T10:45:44.036Z,32.87
2022-07-26T10:47:09.285Z,32.90
2022-07-26T10:48:14.806Z,33.36
2022-07-26T10:49:18.226Z,33.56
2022-07-26T10:50:21.561Z,33.89
2022-07-26T10:51:35.575Z,34.06
2022-07-26T10:52:37.106Z,34.48
2022-07-26T10:53:38.637Z,34.51
2022-07-26T10:54:59.059Z,34.69
2022-07-26T10:56:01.757Z,33.31
2022-07-26T10:57:03.245Z,33.42
2022-07-26T10:58:04.761Z,33.51
2022-07-26T10:59:06.368Z,33.64
2022-07-26T11:00:09.425Z,33.52
2022-07-26T11:01:11.031Z,33.36
2022-07-26T11:02:21.441Z,33.20
2022-07-26T11:03:23.080Z,33.38
2022-07-26T11:04:25.245Z,34.03
2022-07-26T11:05:31.246Z,33.93
2022-07-26T11:06:32.755Z,34.10
2022-07-26T11:07:34.312Z,34.13
2022-07-26T11:08:35.802Z,34.12
2022-07-26T11:09:37.290Z,34.25
2022-07-26T11:10:42.364Z,34.20
2022-07-26T11:11:47.089Z,34.08
2022-07-26T11:12:48.955Z,33.74
2022-07-26T11:13:50.583Z,33.25
2022-07-26T11:14:53.271Z,32.85
2022-07-26T11:16:02.667Z,32.60
2022-07-26T11:17:04.216Z,32.59
2022-07-26T11:18:15.980Z,32.34
2022-07-26T11:19:18.211Z,32.47
2022-07-26T11:20:29.640Z,32.08
2022-07-26T11:21:31.590Z,32.37
2022-07-26T11:22:35.917Z,32.79
2022-07-26T11:23:37.899Z,33.18
2022-07-26T11:24:40.605Z,34.17
2022-07-26T11:25:42.109Z,34.17
2022-07-26T11:26:44.153Z,34.38
2022-07-26T11:28:00.701Z,34.35
2022-07-26T11:29:06.192Z,34.58
2022-07-26T11:30:08.659Z,34.56
2022-07-26T11:31:10.213Z,34.55
2022-07-26T11:32:17.518Z,34.64
2022-07-26T11:33:20.075Z,34.67
2022-07-26T11:34:24.960Z,34.71
2022-07-26T11:35:29.710Z,34.71
2022-07-26T11:36:35.389Z,34.63
2022-07-26T11:37:36.892Z,34.78
2022-07-26T11:38:47.500Z,34.86
2022-07-26T11:39:49.034Z,34.30
2022-07-26T11:40:50.531Z,34.39
2022-07-26T11:41:53.205Z,34.46
2022-07-26T11:42:54.697Z,34.54
2022-07-26T11:44:01.929Z,34.87
2022-07-26T11:45:04.009Z,34.85
2022-07-26T11:46:05.812Z,35.08
2022-07-26T11:47:14.100Z,35.19
2022-07-26T11:48:15.630Z,34.75
2022-07-26T11:49:18.237Z,33.64
2022-07-26T11:50:23.071Z,33.58
2022-07-26T11:51:25.036Z,33.71
2022-07-26T11:52:30.133Z,33.85
2022-07-26T11:53:35.364Z,33.82
2022-07-26T11:54:48.562Z,33.67
2022-07-26T11:55:50.191Z,33.81
2022-07-26T11:56:57.590Z,33.71
2022-07-26T11:58:03.896Z,33.65
2022-07-26T11:59:05.374Z,33.55
2022-07-26T12:00:07.204Z,33.04
2022-07-26T12:01:15.343Z,32.77
2022-07-26T12:02:16.869Z,32.57
2022-07-26T12:03:18.395Z,32.60
2022-07-26T12:04:28.603Z,32.61
2022-07-26T12:05:30.471Z,32.76
2022-07-26T12:06:37.305Z,32.98
2022-07-26T12:07:38.821Z,33.47
2022-07-26T12:08:41.221Z,33.74
2022-07-26T12:09:47.375Z,33.67
2022-07-26T12:10:55.124Z,33.91
2022-07-26T12:11:56.768Z,33.70
2022-07-26T12:13:07.232Z,33.94
2022-07-26T12:14:10.069Z,34.30
2022-07-26T12:15:15.634Z,34.05
2022-07-26T12:16:36.377Z,33.40
2022-07-26T12:17:37.956Z,33.65
2022-07-26T12:18:39.468Z,33.50
2022-07-26T12:19:41.334Z,33.57
2022-07-26T12:20:59.317Z,33.16
2022-07-26T12:22:12.670Z,32.72
2022-07-26T12:23:14.858Z,32.50
2022-07-26T12:24:34.796Z,32.89
2022-07-26T12:25:37.465Z,32.29
2022-07-26T12:26:46.699Z,32.09
2022-07-26T12:27:48.217Z,31.81
2022-07-26T12:28:49.719Z,32.06
2022-07-26T12:29:55.153Z,32.29
2022-07-26T12:30:56.776Z,32.08
2022-07-26T12:32:02.389Z,32.31
2022-07-26T12:33:03.966Z,31.97
2022-07-26T12:34:05.493Z,32.20
2022-07-26T12:35:13.422Z,32.47
2022-07-26T12:36:27.529Z,32.58
2022-07-26T12:37:39.513Z,32.88
2022-07-26T12:38:43.025Z,32.97
2022-07-26T12:39:59.656Z,32.19
2022-07-26T12:41:01.235Z,32.40
2022-07-26T12:42:21.751Z,32.11
2022-07-26T12:43:23.231Z,32.34
2022-07-26T12:44:24.827Z,32.43
2022-07-26T12:45:29.941Z,32.48
2022-07-26T12:46:32.060Z,32.49
2022-07-26T12:47:34.459Z,32.76
2022-07-26T12:48:37.143Z,32.67
2022-07-26T12:49:38.694Z,32.70
2022-07-26T12:50:40.274Z,32.67
2022-07-26T12:51:41.927Z,32.62
2022-07-26T12:52:43.464Z,32.65
2022-07-26T12:53:44.972Z,32.57
2022-07-26T12:54:47.001Z,32.79
2022-07-26T12:55:48.501Z,32.54
2022-07-26T12:56:50.102Z,32.45
2022-07-26T12:57:51.658Z,32.83
2022-07-26T12:59:01.394Z,32.16
2022-07-26T13:00:03.613Z,31.83
2022-07-26T13:01:05.206Z,32.03
2022-07-26T13:02:07.505Z,32.22
2022-07-26T13:03:09.013Z,32.44
2022-07-26T13:04:10.747Z,32.85
2022-07-26T13:05:12.529Z,33.04
2022-07-26T13:06:14.072Z,33.33
2022-07-26T13:07:16.220Z,33.26
2022-07-26T13:08:17.789Z,32.53
2022-07-26T13:09:19.280Z,31.82
2022-07-26T13:10:36.700Z,32.14
2022-07-26T13:11:38.597Z,32.59
2022-07-26T13:12:40.340Z,32.43
2022-07-26T13:13:41.914Z,32.44
2022-07-26T13:14:43.468Z,31.87
2022-07-26T13:15:46.606Z,32.04
2022-07-26T13:16:48.205Z,32.21
2022-07-26T13:17:51.614Z,32.24
2022-07-26T13:18:53.147Z,32.14
2022-07-26T13:19:54.667Z,32.16
2022-07-26T13:20:56.613Z,32.03
2022-07-26T13:21:58.298Z,31.67
2022-07-26T13:22:59.837Z,31.87
2022-07-26T13:24:01.571Z,31.21
2022-07-26T13:25:08.334Z,31.19
2022-07-26T13:26:10.353Z,31.31
2022-07-26T13:27:11.915Z,31.38
2022-07-26T13:28:13.403Z,30.73
2022-07-26T13:29:14.976Z,30.61
2022-07-26T13:30:16.664Z,30.29
2022-07-26T13:31:18.744Z,29.99
2022-07-26T13:32:20.419Z,30.23
2022-07-26T13:33:21.981Z,30.49
2022-07-26T13:34:23.720Z,30.81
2022-07-26T13:35:25.297Z,31.05
2022-07-26T13:36:26.998Z,31.05